Time;durP1;ratioP1;P1;durP2;ratioP2;P2;SDS_P1;SDS_P2;PMS_P1;PMS_P2;Temp;Humidity;BMP_temperature;BMP_pressure;BME280_temperature;BME280_humidity;BME280_pressure;Samples;Min_cycle;Max_cycle;Signal;HPM_P1;HPM_P2
2021/05/30 00:00:43;;;;;;;7.83;5.73;;;9.30;99.90;;;;;;6253115;22;20564;-94
2021/05/30 00:03:09;;;;;;;7.20;6.00;;;9.20;99.90;;;;;;6252630;22;20183;-94
2021/05/30 00:05:36;;;;;;;6.27;5.60;;;9.20;99.90;;;;;;6252318;22;20152;-94
2021/05/30 00:08:02;;;;;;;6.27;5.67;;;9.20;99.90;;;;;;6254357;22;20275;-96
2021/05/30 00:10:29;;;;;;;7.03;5.40;;;9.30;99.90;;;;;;6255541;22;20161;-96
2021/05/30 00:12:56;;;;;;;7.07;5.70;;;9.20;99.90;;;;;;6229326;22;20463;-95
2021/05/30 00:15:22;;;;;;;7.30;5.50;;;9.20;99.90;;;;;;6253399;22;20157;-94
2021/05/30 00:17:52;;;;;;;9.00;5.93;;;9.20;99.90;;;;;;6276866;22;20184;-94
2021/05/30 00:20:18;;;;;;;9.07;6.20;;;9.20;99.90;;;;;;6228712;22;20497;-95
2021/05/30 00:22:45;;;;;;;7.80;5.90;;;9.20;99.90;;;;;;6202872;22;20563;-94
2021/05/30 00:25:12;;;;;;;7.33;6.00;;;9.20;99.90;;;;;;6252608;22;20207;-94
2021/05/30 00:27:38;;;;;;;7.97;6.00;;;9.10;99.90;;;;;;6206719;22;20407;-92
2021/05/30 00:30:05;;;;;;;7.50;5.67;;;9.10;99.90;;;;;;6218625;23;20184;-93
2021/05/30 00:32:30;;;;;;;8.13;5.63;;;9.10;99.90;;;;;;6245403;23;20284;-92
2021/05/30 00:34:56;;;;;;;6.53;4.90;;;9.10;99.90;;;;;;6245650;23;20193;-93
2021/05/30 00:37:22;;;;;;;5.50;5.00;;;9.00;99.90;;;;;;6246029;23;20176;-92
2021/05/30 00:39:47;;;;;;;7.27;5.20;;;9.00;99.90;;;;;;6220706;23;20157;-93
2021/05/30 00:42:14;;;;;;;7.37;5.00;;;9.00;99.90;;;;;;6245549;23;20149;-93
2021/05/30 00:44:40;;;;;;;6.33;4.73;;;9.00;99.90;;;;;;6244836;23;20216;-94
2021/05/30 00:47:05;;;;;;;7.30;4.50;;;8.90;99.90;;;;;;6244755;23;20205;-93
2021/05/30 00:49:31;;;;;;;8.67;5.63;;;8.90;99.90;;;;;;6246289;23;20164;-93
2021/05/30 00:51:57;;;;;;;7.17;5.53;;;8.80;99.90;;;;;;6245810;23;20152;-93
2021/05/30 00:54:23;;;;;;;8.23;4.93;;;8.80;99.90;;;;;;6245569;23;20157;-93
2021/05/30 00:56:49;;;;;;;5.17;4.13;;;8.70;99.90;;;;;;6245946;23;20165;-93
2021/05/30 00:59:15;;;;;;;6.80;4.10;;;8.70;99.90;;;;;;6245522;23;20181;-93
2021/05/30 01:01:41;;;;;;;6.73;4.50;;;8.70;99.90;;;;;;6246109;23;20169;-93
2021/05/30 01:04:10;;;;;;;6.80;5.10;;;8.50;99.90;;;;;;6246043;23;20576;-93
2021/05/30 01:06:37;;;;;;;5.20;4.40;;;8.50;99.90;;;;;;6243844;23;20185;-93
2021/05/30 01:09:03;;;;;;;7.27;5.10;;;8.50;99.90;;;;;;6246526;23;20637;-92
2021/05/30 01:11:31;;;;;;;10.97;5.73;;;8.50;99.90;;;;;;6246130;23;20463;-92
2021/05/30 01:13:58;;;;;;;6.23;5.27;;;8.50;99.90;;;;;;6246225;23;20169;-93
2021/05/30 01:16:26;;;;;;;6.17;5.40;;;8.50;99.90;;;;;;6245656;23;20157;-93
2021/05/30 01:18:55;;;;;;;8.73;6.00;;;8.50;99.90;;;;;;6245707;23;20564;-92
2021/05/30 01:21:22;;;;;;;5.63;4.70;;;8.60;99.90;;;;;;6245810;23;20614;-93
2021/05/30 01:23:52;;;;;;;7.77;5.33;;;8.60;99.90;;;;;;6246138;23;20153;-93
2021/05/30 01:26:18;;;;;;;8.07;5.40;;;8.50;99.90;;;;;;6246036;23;20157;-94
2021/05/30 01:28:44;;;;;;;7.77;5.37;;;8.50;99.90;;;;;;6245809;23;20620;-93
2021/05/30 01:31:10;;;;;;;8.60;5.50;;;8.40;99.90;;;;;;6245941;23;20165;-92
2021/05/30 01:33:36;;;;;;;7.73;5.60;;;8.40;99.90;;;;;;6245696;23;20158;-92
2021/05/30 01:36:02;;;;;;;7.83;5.10;;;8.40;99.90;;;;;;6245859;23;20263;-92
2021/05/30 01:38:28;;;;;;;7.27;5.00;;;8.30;99.90;;;;;;6245974;23;20292;-92
2021/05/30 01:40:54;;;;;;;5.77;4.70;;;8.20;99.90;;;;;;6246152;23;20622;-93
2021/05/30 01:43:20;;;;;;;6.03;5.33;;;8.20;99.90;;;;;;6220844;23;20157;-93
2021/05/30 01:45:46;;;;;;;6.70;4.20;;;8.20;99.90;;;;;;6247645;23;20156;-93
2021/05/30 01:48:11;;;;;;;10.90;5.00;;;8.20;99.90;;;;;;6247311;23;20240;-93
2021/05/30 01:50:37;;;;;;;5.77;4.80;;;8.20;99.90;;;;;;6247433;23;20248;-92
2021/05/30 01:53:08;;;;;;;7.40;4.80;;;8.20;99.90;;;;;;6222498;23;20156;-92
2021/05/30 01:58:14;;;;;;;7.30;4.93;;;8.20;99.90;;;;;;6259396;22;20148;-92
2021/05/30 02:00:40;;;;;;;5.50;3.80;;;8.10;99.90;;;;;;6249197;22;20152;-93
2021/05/30 02:03:07;;;;;;;5.13;3.10;;;8.00;99.90;;;;;;6247749;23;20496;-93
2021/05/30 02:05:34;;;;;;;4.70;4.30;;;8.10;99.90;;;;;;6246715;23;20154;-94
2021/05/30 02:08:00;;;;;;;6.63;3.27;;;8.10;99.90;;;;;;6247885;23;20264;-93
2021/05/30 02:10:27;;;;;;;7.23;3.90;;;8.20;99.90;;;;;;6247534;23;20206;-93
2021/05/30 02:12:54;;;;;;;4.87;4.37;;;8.10;99.90;;;;;;6247678;23;20564;-93
2021/05/30 02:15:21;;;;;;;4.87;3.87;;;8.00;99.90;;;;;;6247225;23;20161;-92
2021/05/30 02:17:47;;;;;;;6.30;4.27;;;8.00;99.90;;;;;;6247630;23;20212;-94
2021/05/30 02:20:15;;;;;;;6.37;4.10;;;8.00;99.90;;;;;;6247404;23;20153;-93
2021/05/30 02:22:40;;;;;;;6.20;4.13;;;8.10;99.90;;;;;;6246781;23;20157;-93
2021/05/30 02:25:11;;;;;;;5.03;4.10;;;8.00;99.90;;;;;;6247413;23;20157;-93
2021/05/30 02:27:37;;;;;;;6.80;4.20;;;8.00;99.90;;;;;;6247202;23;20279;-93
2021/05/30 02:30:04;;;;;;;5.70;4.30;;;8.00;99.90;;;;;;6247322;23;20165;-93
2021/05/30 02:32:30;;;;;;;6.23;4.40;;;7.90;99.90;;;;;;6247064;23;20157;-92
2021/05/30 02:34:56;;;;;;;5.43;4.50;;;7.90;99.90;;;;;;6247675;23;20160;-93
2021/05/30 02:37:22;;;;;;;7.43;5.30;;;7.80;99.90;;;;;;6247242;23;20556;-93
2021/05/30 02:39:47;;;;;;;5.40;4.90;;;7.90;99.90;;;;;;6247416;23;20459;-93
2021/05/30 02:42:13;;;;;;;4.97;4.37;;;7.80;99.90;;;;;;6247531;23;20157;-93
2021/05/30 02:44:39;;;;;;;6.90;4.93;;;7.80;99.90;;;;;;6246859;23;20206;-92
2021/05/30 02:47:05;;;;;;;5.67;4.87;;;7.80;99.90;;;;;;6247109;23;20228;-93
2021/05/30 02:49:32;;;;;;;6.87;5.00;;;7.70;99.90;;;;;;6247231;23;20583;-92
2021/05/30 02:51:59;;;;;;;6.03;4.63;;;7.70;99.90;;;;;;6246969;23;20165;-93
2021/05/30 02:54:25;;;;;;;6.27;5.00;;;7.80;99.90;;;;;;6247024;23;20236;-93
2021/05/30 02:56:51;;;;;;;5.60;4.50;;;7.80;99.90;;;;;;6246896;23;20196;-93
2021/05/30 02:59:17;;;;;;;6.93;4.90;;;7.80;99.90;;;;;;6246962;23;20168;-93
2021/05/30 03:01:42;;;;;;;6.03;4.57;;;7.80;99.90;;;;;;6247106;23;20201;-93
2021/05/30 03:04:08;;;;;;;6.60;5.27;;;7.80;99.90;;;;;;6247089;23;20471;-93
2021/05/30 03:06:34;;;;;;;4.83;4.33;;;7.80;99.90;;;;;;6246674;23;20193;-93
2021/05/30 03:08:59;;;;;;;4.70;4.10;;;7.80;99.90;;;;;;6221500;23;20471;-93
2021/05/30 03:11:26;;;;;;;5.30;4.80;;;7.70;99.90;;;;;;6247002;23;20233;-94
2021/05/30 03:13:52;;;;;;;6.47;4.90;;;7.80;99.90;;;;;;6247007;23;20569;-93
2021/05/30 03:16:19;;;;;;;6.50;4.90;;;7.70;99.90;;;;;;6247112;23;20153;-93
2021/05/30 03:18:45;;;;;;;7.37;5.27;;;7.60;99.90;;;;;;6246599;23;20185;-93
2021/05/30 03:21:11;;;;;;;9.60;5.27;;;7.60;99.90;;;;;;6221796;23;20505;-93
2021/05/30 03:23:37;;;;;;;5.57;4.47;;;7.70;99.90;;;;;;6246383;23;20172;-93
2021/05/30 03:26:02;;;;;;;6.97;5.63;;;7.60;99.90;;;;;;6221489;23;20153;-92
2021/05/30 03:28:28;;;;;;;7.03;5.10;;;7.60;99.90;;;;;;6246130;23;20209;-93
2021/05/30 03:30:54;;;;;;;7.77;5.00;;;7.50;99.90;;;;;;6246776;23;20232;-93
2021/05/30 03:33:20;;;;;;;8.07;5.67;;;7.50;99.90;;;;;;6246751;23;20160;-93
2021/05/30 03:35:46;;;;;;;9.00;5.77;;;7.50;99.90;;;;;;6246377;23;20227;-94
2021/05/30 03:38:13;;;;;;;6.50;5.33;;;7.60;99.90;;;;;;6246494;23;20157;-93
2021/05/30 03:40:51;;;;;;;7.43;4.43;;;7.50;99.90;;;;;;6246623;23;20168;-93
2021/05/30 03:43:17;;;;;;;7.23;4.80;;;7.50;99.90;;;;;;6246425;23;20164;-93
2021/05/30 03:45:43;;;;;;;7.67;5.87;;;7.60;99.90;;;;;;6247010;23;20153;-93
2021/05/30 03:48:08;;;;;;;7.37;5.47;;;7.60;99.90;;;;;;6247109;23;20254;-93
2021/05/30 03:50:35;;;;;;;11.63;5.47;;;7.60;99.90;;;;;;6246273;23;20153;-93
2021/05/30 03:53:01;;;;;;;7.87;5.50;;;7.60;99.90;;;;;;6246180;23;20161;-93
2021/05/30 03:55:27;;;;;;;9.43;5.53;;;7.60;99.90;;;;;;6246407;23;20612;-93
2021/05/30 03:57:53;;;;;;;6.03;5.03;;;7.60;99.90;;;;;;6246114;23;20158;-93
2021/05/30 04:00:20;;;;;;;7.50;5.13;;;7.60;99.90;;;;;;6246489;23;20153;-93
2021/05/30 04:02:46;;;;;;;8.17;5.73;;;7.50;99.90;;;;;;6246495;23;20263;-93
2021/05/30 04:05:14;;;;;;;6.57;5.60;;;7.50;99.90;;;;;;6247116;23;20152;-93
2021/05/30 04:07:40;;;;;;;7.73;5.57;;;7.60;99.90;;;;;;6245513;23;20482;-94
2021/05/30 04:10:08;;;;;;;6.77;6.07;;;7.60;99.90;;;;;;6246423;23;20153;-93
2021/05/30 04:12:34;;;;;;;8.77;6.17;;;7.60;99.90;;;;;;6246232;23;20510;-93
2021/05/30 04:15:00;;;;;;;6.93;5.70;;;7.50;99.90;;;;;;6246172;23;20163;-94
2021/05/30 04:17:26;;;;;;;7.67;6.00;;;7.60;99.90;;;;;;6246980;23;20160;-93
2021/05/30 04:19:52;;;;;;;8.33;7.07;;;7.60;99.90;;;;;;6246543;23;20152;-93
2021/05/30 04:22:17;;;;;;;6.83;6.10;;;7.60;99.90;;;;;;6221057;23;20571;-93
2021/05/30 04:24:43;;;;;;;10.03;7.07;;;7.60;99.90;;;;;;6246185;23;20160;-93
2021/05/30 04:27:09;;;;;;;8.47;6.80;;;7.60;99.90;;;;;;6246391;23;20192;-93
2021/05/30 04:29:34;;;;;;;10.47;6.83;;;7.80;99.90;;;;;;6221347;23;20207;-94
2021/05/30 04:32:02;;;;;;;8.97;7.07;;;7.90;99.90;;;;;;6246297;23;20563;-93
2021/05/30 04:34:30;;;;;;;10.93;7.27;;;7.90;99.90;;;;;;6246235;23;20640;-93
2021/05/30 04:36:56;;;;;;;15.40;7.63;;;8.00;99.90;;;;;;6245848;23;20180;-92
2021/05/30 04:39:22;;;;;;;9.33;7.27;;;8.00;99.90;;;;;;6246314;23;20157;-93
2021/05/30 04:41:47;;;;;;;9.30;7.90;;;8.20;99.90;;;;;;6220948;23;20165;-93
2021/05/30 04:44:13;;;;;;;12.13;7.97;;;8.30;99.90;;;;;;6246306;23;20156;-93
2021/05/30 04:46:39;;;;;;;12.73;8.27;;;8.40;99.90;;;;;;6246109;23;20199;-93
2021/05/30 04:49:05;;;;;;;11.57;7.63;;;8.60;99.90;;;;;;6245986;23;20591;-92
2021/05/30 04:51:30;;;;;;;11.13;7.60;;;8.70;99.90;;;;;;6245861;23;20302;-92
2021/05/30 04:53:58;;;;;;;12.37;7.80;;;8.80;99.90;;;;;;6246027;23;20153;-93
2021/05/30 04:56:24;;;;;;;10.37;7.53;;;8.90;99.90;;;;;;6245799;23;20520;-92
2021/05/30 04:58:50;;;;;;;12.97;8.57;;;9.10;99.90;;;;;;6246294;23;20192;-92
2021/05/30 05:01:16;;;;;;;11.27;8.73;;;9.20;99.90;;;;;;6246127;23;20160;-92
2021/05/30 05:03:41;;;;;;;10.97;8.87;;;9.30;99.90;;;;;;6246810;23;20153;-93
2021/05/30 05:06:07;;;;;;;12.97;9.43;;;9.40;99.90;;;;;;6245265;23;20153;-93
2021/05/30 05:08:33;;;;;;;14.83;10.37;;;9.40;99.90;;;;;;6220696;23;20192;-92
2021/05/30 05:10:59;;;;;;;17.93;10.13;;;9.50;99.90;;;;;;6220958;23;20153;-93
2021/05/30 05:13:25;;;;;;;16.30;11.23;;;9.60;99.90;;;;;;6246154;23;20157;-93
2021/05/30 05:15:53;;;;;;;15.87;11.00;;;9.60;99.90;;;;;;6246141;23;20238;-92
2021/05/30 05:18:21;;;;;;;18.17;11.07;;;9.60;99.90;;;;;;6246713;23;20184;-92
2021/05/30 05:20:47;;;;;;;21.10;10.90;;;9.70;99.90;;;;;;6247479;23;20161;-92
2021/05/30 05:23:22;;;;;;;15.97;11.90;;;9.70;99.90;;;;;;6248090;23;20185;-92
2021/05/30 05:25:50;;;;;;;13.03;10.60;;;9.80;99.90;;;;;;6222793;23;20560;-93
2021/05/30 05:28:15;;;;;;;14.83;10.87;;;9.90;99.90;;;;;;6247993;23;20681;-93
2021/05/30 05:30:42;;;;;;;17.97;12.30;;;9.90;99.90;;;;;;6247867;23;20236;-93
2021/05/30 05:33:07;;;;;;;15.93;11.63;;;10.10;99.90;;;;;;6247591;23;20164;-93
2021/05/30 05:35:33;;;;;;;21.97;12.23;;;10.10;99.90;;;;;;6221393;23;20149;-92
2021/05/30 05:38:00;;;;;;;21.57;12.80;;;10.10;99.90;;;;;;6222443;23;20157;-92
2021/05/30 05:40:27;;;;;;;17.97;13.17;;;10.20;99.90;;;;;;6222322;23;20216;-93
2021/05/30 05:42:54;;;;;;;18.53;11.97;;;10.30;99.90;;;;;;6222599;23;20157;-92
2021/05/30 05:45:22;;;;;;;16.83;10.77;;;10.30;99.90;;;;;;6222916;23;20204;-92
2021/05/30 05:47:48;;;;;;;15.20;11.20;;;10.30;99.90;;;;;;6222379;23;20191;-93
2021/05/30 05:50:15;;;;;;;19.83;12.03;;;10.40;99.90;;;;;;6222268;23;20163;-92
2021/05/30 05:52:42;;;;;;;19.93;12.33;;;10.50;99.90;;;;;;6222233;23;20161;-92
2021/05/30 05:55:09;;;;;;;17.50;10.50;;;10.50;99.90;;;;;;6222461;23;20154;-93
2021/05/30 05:57:35;;;;;;;22.00;13.03;;;10.60;99.90;;;;;;6222519;23;20157;-92
2021/05/30 06:00:05;;;;;;;17.13;11.33;;;10.60;99.90;;;;;;6222403;23;20157;-91
2021/05/30 06:02:31;;;;;;;21.60;12.38;;;10.60;99.90;;;;;;6222021;23;20231;-92
2021/05/30 06:04:56;;;;;;;16.03;11.40;;;10.70;99.90;;;;;;6221843;23;20572;-92
2021/05/30 06:07:23;;;;;;;18.57;11.97;;;10.70;99.90;;;;;;6221321;23;20241;-92
2021/05/30 06:09:48;;;;;;;19.92;11.38;;;10.80;99.90;;;;;;6221690;23;20161;-92
2021/05/30 06:12:14;;;;;;;20.27;13.00;;;10.80;99.90;;;;;;6221589;23;20163;-93
2021/05/30 06:14:40;;;;;;;19.47;11.83;;;10.90;99.90;;;;;;6248458;23;20196;-93
2021/05/30 06:17:07;;;;;;;14.82;11.45;;;10.90;99.90;;;;;;6221747;23;20470;-93
2021/05/30 06:19:33;;;;;;;18.83;12.27;;;11.10;99.90;;;;;;6221951;23;20200;-92
2021/05/30 06:22:01;;;;;;;13.73;10.87;;;11.10;99.90;;;;;;6222182;23;20179;-94
2021/05/30 06:24:27;;;;;;;18.63;12.10;;;11.10;99.90;;;;;;6222105;23;20204;-92
2021/05/30 06:26:57;;;;;;;18.08;12.13;;;11.30;99.90;;;;;;6221309;23;20185;-91
2021/05/30 06:29:23;;;;;;;16.45;11.23;;;11.30;99.90;;;;;;6240001;23;20520;-91
2021/05/30 06:31:49;;;;;;;16.98;11.10;;;11.40;99.90;;;;;;6246901;23;20160;-92
2021/05/30 06:34:15;;;;;;;19.58;12.50;;;11.50;99.90;;;;;;6246943;23;20153;-94
2021/05/30 06:36:47;;;;;;;14.83;10.57;;;11.60;99.90;;;;;;6246430;23;20161;-92
2021/05/30 06:39:13;;;;;;;16.33;10.98;;;11.70;99.90;;;;;;6247219;23;20235;-93
2021/05/30 06:41:40;;;;;;;23.67;12.63;;;11.80;99.90;;;;;;6247183;23;20557;-92
2021/05/30 06:44:06;;;;;;;18.27;10.57;;;12.10;99.90;;;;;;6247252;23;20161;-91
2021/05/30 06:46:34;;;;;;;16.85;10.85;;;12.20;99.90;;;;;;6246417;23;20158;-92
2021/05/30 06:49:00;;;;;;;16.88;10.95;;;12.50;99.90;;;;;;6246846;23;20157;-91
2021/05/30 06:51:30;;;;;;;22.85;11.40;;;12.60;99.90;;;;;;6246773;23;20207;-93
2021/05/30 06:53:57;;;;;;;18.20;11.05;;;12.80;99.90;;;;;;6247333;23;20188;-92
2021/05/30 06:56:23;;;;;;;17.45;11.18;;;12.90;99.90;;;;;;6246891;23;20158;-91
2021/05/30 06:58:48;;;;;;;16.13;11.00;;;13.00;99.90;;;;;;6247339;23;20168;-91
2021/05/30 07:01:16;;;;;;;16.27;10.88;;;13.30;99.90;;;;;;6246968;23;20154;-92
2021/05/30 07:03:42;;;;;;;18.85;11.45;;;13.20;99.90;;;;;;6246788;23;20164;-93
2021/05/30 07:06:08;;;;;;;17.60;10.68;;;13.50;99.90;;;;;;6246658;23;20160;-92
2021/05/30 07:08:34;;;;;;;17.05;9.73;;;13.50;99.90;;;;;;6245510;23;20189;-96
2021/05/30 07:10:59;;;;;;;15.65;11.02;;;13.80;99.90;;;;;;6247001;23;20548;-92
2021/05/30 07:13:25;;;;;;;18.60;10.40;;;13.80;99.90;;;;;;6248049;23;20145;-93
2021/05/30 07:15:52;;;;;;;15.48;10.50;;;14.00;99.90;;;;;;6246432;23;20180;-91
2021/05/30 07:18:19;;;;;;;15.70;9.50;;;14.10;99.90;;;;;;6247248;23;20154;-94
2021/05/30 07:20:46;;;;;;;15.40;10.23;;;14.30;99.90;;;;;;6247542;23;20241;-93
2021/05/30 07:23:11;;;;;;;16.27;10.52;;;14.40;99.90;;;;;;6247083;23;20548;-93
2021/05/30 07:25:38;;;;;;;15.55;9.82;;;14.50;99.90;;;;;;6246607;23;20184;-92
2021/05/30 07:28:04;;;;;;;27.13;10.35;;;14.50;99.90;;;;;;6245916;23;20205;-93
2021/05/30 07:30:30;;;;;;;18.23;10.38;;;14.70;99.90;;;;;;6245964;23;20236;-92
2021/05/30 07:32:56;;;;;;;14.63;9.40;;;14.80;99.90;;;;;;6246522;23;20184;-93
2021/05/30 07:35:22;;;;;;;17.17;9.35;;;14.90;99.90;;;;;;6246220;23;20156;-92
2021/05/30 07:37:47;;;;;;;17.00;10.23;;;15.10;99.90;;;;;;6246430;23;20153;-95
2021/05/30 07:40:15;;;;;;;13.73;9.23;;;15.20;99.90;;;;;;6247582;23;20248;-93
2021/05/30 07:42:42;;;;;;;14.05;9.55;;;15.10;99.90;;;;;;6245850;23;20245;-92
2021/05/30 07:45:09;;;;;;;20.48;9.90;;;15.10;99.90;;;;;;6248084;23;20173;-92
2021/05/30 07:47:34;;;;;;;12.85;9.10;;;15.10;99.90;;;;;;6246691;23;20267;-92
2021/05/30 07:50:00;;;;;;;13.50;9.25;;;15.30;99.90;;;;;;6246512;23;20246;-92
2021/05/30 07:52:26;;;;;;;14.52;9.25;;;15.40;99.90;;;;;;6246227;23;20158;-94
2021/05/30 07:54:51;;;;;;;18.65;10.57;;;15.60;99.90;;;;;;6246940;23;20600;-92
2021/05/30 07:57:17;;;;;;;13.18;8.95;;;15.60;99.90;;;;;;6246510;23;20161;-93
2021/05/30 07:59:43;;;;;;;15.35;9.40;;;15.70;99.90;;;;;;6247026;23;20160;-93
2021/05/30 08:02:08;;;;;;;14.75;9.05;;;15.90;99.90;;;;;;6246403;23;20157;-93
2021/05/30 08:04:34;;;;;;;15.27;9.10;;;15.90;99.90;;;;;;6245946;23;20160;-92
2021/05/30 08:07:00;;;;;;;17.15;9.07;;;16.00;99.90;;;;;;6246006;23;20204;-94
2021/05/30 08:09:26;;;;;;;14.35;8.50;;;16.00;99.90;;;;;;6246461;23;20467;-94
2021/05/30 08:11:54;;;;;;;12.40;8.57;;;16.20;99.90;;;;;;6245990;23;20154;-94
2021/05/30 08:14:21;;;;;;;14.40;8.55;;;16.30;99.90;;;;;;6246414;23;20156;-94
2021/05/30 08:16:47;;;;;;;12.27;7.72;;;16.40;99.90;;;;;;6246535;23;20212;-92
2021/05/30 08:19:13;;;;;;;16.33;7.55;;;16.50;99.90;;;;;;6246399;23;20153;-92
2021/05/30 08:21:40;;;;;;;14.98;7.45;;;16.60;99.90;;;;;;6245299;23;20161;-92
2021/05/30 08:24:06;;;;;;;11.73;8.35;;;16.70;99.90;;;;;;6245941;23;20161;-93
2021/05/30 08:26:32;;;;;;;12.40;8.77;;;16.80;99.90;;;;;;6246273;23;20161;-91
2021/05/30 08:28:57;;;;;;;15.68;8.45;;;16.80;99.90;;;;;;6245939;23;20201;-93
2021/05/30 08:31:23;;;;;;;11.13;7.93;;;16.70;99.90;;;;;;6245459;23;20160;-94
2021/05/30 08:33:49;;;;;;;12.68;8.25;;;16.90;99.90;;;;;;6246714;23;20208;-94
2021/05/30 08:36:14;;;;;;;12.07;6.95;;;17.00;99.90;;;;;;6246462;23;20448;-94
2021/05/30 08:38:40;;;;;;;13.02;8.43;;;17.10;99.90;;;;;;6246015;23;20153;-93
2021/05/30 08:41:06;;;;;;;15.63;9.18;;;17.20;99.90;;;;;;6245975;23;20164;-94
2021/05/30 08:43:32;;;;;;;14.32;8.13;;;17.20;99.90;;;;;;6246066;23;20508;-94
2021/05/30 08:45:58;;;;;;;13.30;8.68;;;17.30;99.90;;;;;;6246255;23;20153;-94
2021/05/30 08:48:25;;;;;;;12.32;7.40;;;17.50;99.90;;;;;;6246103;23;20220;-94
2021/05/30 08:51:03;;;;;;;12.27;7.00;;;17.70;99.90;;;;;;6246595;23;20164;-95
2021/05/30 08:53:32;;;;;;;12.70;7.30;;;17.90;99.90;;;;;;6246948;23;20169;-93
2021/05/30 08:55:57;;;;;;;8.50;6.15;;;17.80;99.90;;;;;;6248248;23;20153;-94
2021/05/30 08:58:33;;;;;;;9.43;5.50;;;17.70;99.90;;;;;;6248882;23;20153;-95
2021/05/30 09:01:09;;;;;;;10.48;5.72;;;17.40;99.90;;;;;;6249448;23;20156;-95
2021/05/30 09:04:04;;;;;;;9.50;6.18;;;17.30;99.90;;;;;;6249635;23;20188;-95
2021/05/30 09:06:30;;;;;;;8.73;5.60;;;17.40;99.90;;;;;;6247690;23;20433;-96
2021/05/30 09:08:56;;;;;;;11.95;6.15;;;17.30;99.90;;;;;;6248630;23;20165;-95
2021/05/30 09:11:35;;;;;;;10.27;6.88;;;17.10;99.90;;;;;;6247876;23;20153;-96
2021/05/30 09:14:04;;;;;;;12.25;6.55;;;17.00;99.90;;;;;;6246034;23;20212;-94
2021/05/30 09:16:54;;;;;;;8.75;6.40;;;17.00;99.90;;;;;;6248893;23;20161;-96
2021/05/30 09:19:46;;;;;;;12.07;7.00;;;17.30;99.90;;;;;;6248429;23;20544;-95
2021/05/30 09:22:36;;;;;;;8.02;5.88;;;17.50;99.90;;;;;;6231314;23;20584;-94
2021/05/30 09:25:05;;;;;;;9.52;5.47;;;17.70;99.90;;;;;;6247620;23;20160;-93
2021/05/30 09:27:32;;;;;;;8.50;5.82;;;17.70;99.90;;;;;;6247340;23;20192;-94
2021/05/30 09:30:18;;;;;;;9.75;5.75;;;17.60;99.90;;;;;;6248079;23;20197;-95
2021/05/30 09:32:53;;;;;;;7.03;4.85;;;17.50;99.90;;;;;;6247838;23;20156;-95
2021/05/30 09:35:28;;;;;;;12.10;5.53;;;17.40;99.90;;;;;;6247962;23;20153;-93
2021/05/30 09:38:02;;;;;;;10.50;5.75;;;17.20;99.90;;;;;;6247415;23;20579;-94
2021/05/30 09:40:48;;;;;;;6.88;5.40;;;17.20;99.90;;;;;;6247566;23;20153;-93
2021/05/30 09:43:17;;;;;;;10.15;5.82;;;17.40;99.90;;;;;;6247750;23;20460;-94
2021/05/30 09:46:09;;;;;;;10.95;5.65;;;17.60;99.90;;;;;;6246209;23;20150;-94
2021/05/30 09:48:39;;;;;;;8.55;5.72;;;17.80;99.90;;;;;;6248189;23;20189;-93
2021/05/30 09:51:25;;;;;;;7.45;5.25;;;17.80;99.90;;;;;;6248164;23;20150;-94
2021/05/30 09:53:54;;;;;;;8.85;5.63;;;17.70;99.90;;;;;;6247774;23;20667;-94
2021/05/30 09:56:30;;;;;;;9.85;5.57;;;17.60;99.90;;;;;;6247730;23;20150;-94
2021/05/30 09:58:56;;;;;;;7.18;4.85;;;17.80;99.90;;;;;;6247986;23;20182;-94
2021/05/30 10:01:23;;;;;;;7.05;4.57;;;18.00;99.90;;;;;;6245837;23;20268;-93
2021/05/30 10:03:49;;;;;;;6.93;4.78;;;18.20;99.40;;;;;;6247317;23;20185;-95
2021/05/30 10:06:15;;;;;;;7.78;4.22;;;18.40;98.60;;;;;;6247572;23;20149;-94
2021/05/30 10:08:41;;;;;;;7.20;3.70;;;18.60;99.30;;;;;;6247389;23;20216;-94
2021/05/30 10:11:07;;;;;;;6.53;4.00;;;18.80;98.00;;;;;;6247743;23;20452;-94
2021/05/30 10:13:33;;;;;;;7.85;4.40;;;18.90;98.20;;;;;;6246740;23;20523;-93
2021/05/30 10:16:00;;;;;;;7.15;3.67;;;18.80;96.40;;;;;;6247482;23;20160;-93
2021/05/30 10:18:30;;;;;;;6.65;3.55;;;18.80;96.20;;;;;;6247324;23;20153;-94
2021/05/30 10:20:58;;;;;;;5.78;3.92;;;18.70;95.50;;;;;;6246346;23;20165;-94
2021/05/30 10:23:24;;;;;;;9.23;3.60;;;18.80;98.70;;;;;;6247455;23;20157;-94
2021/05/30 10:25:50;;;;;;;5.18;4.03;;;19.00;97.20;;;;;;6246947;23;20160;-96
2021/05/30 10:28:18;;;;;;;5.10;3.75;;;19.30;97.60;;;;;;6247549;23;20212;-95
2021/05/30 10:30:46;;;;;;;4.40;3.58;;;19.60;96.40;;;;;;6247441;23;20157;-93
2021/05/30 10:33:15;;;;;;;6.35;3.88;;;19.30;94.00;;;;;;6247613;23;20181;-95
2021/05/30 10:35:46;;;;;;;4.97;3.80;;;19.20;95.80;;;;;;6247358;23;20571;-94
2021/05/30 10:38:12;;;;;;;6.07;3.65;;;19.00;97.50;;;;;;6247445;23;20168;-92
2021/05/30 10:40:41;;;;;;;8.35;4.35;;;18.70;95.70;;;;;;6247397;23;20235;-94
2021/05/30 10:43:10;;;;;;;5.63;4.00;;;18.70;95.60;;;;;;6247628;23;20161;-93
2021/05/30 10:45:42;;;;;;;7.13;4.43;;;19.00;96.90;;;;;;6246355;23;20173;-93
2021/05/30 10:48:17;;;;;;;5.65;4.10;;;19.30;96.40;;;;;;6247904;23;20203;-93
2021/05/30 10:53:38;;;;;;;8.30;4.07;;;19.60;97.70;;;;;;6250108;23;20553;-94
2021/05/30 10:56:18;;;;;;;4.80;3.08;;;19.80;96.50;;;;;;6247286;23;20153;-93
2021/05/30 10:59:05;;;;;;;5.25;3.78;;;19.80;94.70;;;;;;6247944;23;20161;-94
2021/05/30 11:01:34;;;;;;;7.00;4.20;;;19.70;93.90;;;;;;6246252;23;20157;-93
2021/05/30 11:04:31;;;;;;;8.32;3.63;;;19.50;96.70;;;;;;6246720;23;20624;-93
2021/05/30 11:07:02;;;;;;;7.03;3.40;;;19.60;95.00;;;;;;6246516;23;20185;-94
2021/05/30 11:09:49;;;;;;;6.15;3.30;;;19.70;96.20;;;;;;6247023;23;20228;-93
2021/05/30 11:12:35;;;;;;;5.47;3.42;;;19.60;93.90;;;;;;6247682;23;20154;-93
2021/05/30 11:15:10;;;;;;;4.57;3.13;;;19.40;95.00;;;;;;6246766;23;20161;-93
2021/05/30 11:17:40;;;;;;;6.47;3.42;;;19.30;95.10;;;;;;6245174;23;20156;-94
2021/05/30 11:20:12;;;;;;;7.18;3.45;;;19.10;93.60;;;;;;6246260;23;20153;-94
2021/05/30 11:22:42;;;;;;;5.72;3.55;;;18.90;94.50;;;;;;6244905;23;20163;-94
2021/05/30 11:25:09;;;;;;;6.15;3.45;;;18.90;95.90;;;;;;6245172;23;20153;-93
2021/05/30 11:28:09;;;;;;;6.07;3.35;;;18.90;95.60;;;;;;6245370;22;20255;-94
2021/05/30 11:30:42;;;;;;;4.03;3.03;;;19.20;95.20;;;;;;6165636;23;20200;-93
2021/05/30 11:33:25;;;;;;;4.70;3.30;;;19.60;94.60;;;;;;6244048;23;20152;-93
2021/05/30 11:35:55;;;;;;;3.95;2.97;;;19.90;95.40;;;;;;6243990;23;20177;-93
2021/05/30 11:38:48;;;;;;;3.90;3.00;;;20.20;95.10;;;;;;6246110;23;20161;-94
2021/05/30 11:41:36;;;;;;;6.40;3.92;;;20.10;93.00;;;;;;6244232;23;20157;-94
2021/05/30 11:44:19;;;;;;;6.22;3.08;;;19.90;92.50;;;;;;6243869;23;20622;-92
2021/05/30 11:46:54;;;;;;;6.05;3.45;;;19.70;93.90;;;;;;6245172;23;20157;-94
2021/05/30 11:49:33;;;;;;;7.00;3.15;;;19.60;94.60;;;;;;6246210;23;20169;-94
2021/05/30 11:52:11;;;;;;;6.88;3.47;;;19.40;94.20;;;;;;6245759;23;20209;-92
2021/05/30 11:54:45;;;;;;;4.38;3.20;;;19.40;95.10;;;;;;6246219;23;20160;-93
2021/05/30 11:57:19;;;;;;;5.53;2.90;;;19.40;96.20;;;;;;6245377;23;20160;-94
2021/05/30 11:59:59;;;;;;;7.40;3.40;;;19.70;94.40;;;;;;6245722;23;20600;-95
2021/05/30 12:02:30;;;;;;;7.30;3.15;;;19.90;95.20;;;;;;6246653;23;20195;-95
2021/05/30 12:05:07;;;;;;;6.00;3.53;;;20.10;94.50;;;;;;6245490;23;20221;-95
2021/05/30 12:07:33;;;;;;;4.50;3.03;;;20.20;95.30;;;;;;6248295;23;20487;-94
2021/05/30 12:10:00;;;;;;;4.90;2.80;;;20.20;93.40;;;;;;6243943;23;20161;-94
2021/05/30 12:12:38;;;;;;;5.38;3.17;;;20.20;91.70;;;;;;6245910;23;20221;-93
2021/05/30 12:15:13;;;;;;;6.55;3.50;;;20.10;91.90;;;;;;6246098;23;20572;-92
2021/05/30 12:17:44;;;;;;;5.22;3.10;;;19.80;92.30;;;;;;6246020;23;20157;-93
2021/05/30 12:20:20;;;;;;;4.55;3.58;;;19.80;93.30;;;;;;6245919;23;20236;-94
2021/05/30 12:22:46;;;;;;;3.53;2.65;;;19.90;93.60;;;;;;6245957;23;20149;-95
2021/05/30 12:25:13;;;;;;;4.20;3.10;;;20.00;93.60;;;;;;6246710;23;20161;-94
2021/05/30 12:27:39;;;;;;;8.20;3.28;;;20.00;92.50;;;;;;6245962;23;20266;-93
2021/05/30 12:30:06;;;;;;;4.80;3.03;;;20.20;95.60;;;;;;6246362;23;20166;-93
2021/05/30 12:32:31;;;;;;;5.10;3.22;;;20.30;93.20;;;;;;6246355;23;20165;-95
2021/05/30 12:34:57;;;;;;;3.92;2.92;;;20.30;91.40;;;;;;6247274;23;20176;-94
2021/05/30 12:37:44;;;;;;;7.10;3.22;;;20.20;93.50;;;;;;6247343;23;20149;-93
2021/05/30 12:40:12;;;;;;;4.22;2.80;;;20.30;92.50;;;;;;6246803;23;20207;-93
2021/05/30 12:42:40;;;;;;;5.32;3.30;;;20.30;90.30;;;;;;6246310;23;20189;-95
2021/05/30 12:45:09;;;;;;;7.47;3.25;;;20.40;91.70;;;;;;6246443;23;20157;-92
2021/05/30 12:47:44;;;;;;;5.22;3.30;;;20.40;93.30;;;;;;6246492;23;20177;-92
2021/05/30 12:50:14;;;;;;;4.00;3.03;;;20.50;91.40;;;;;;6245708;23;20244;-92
2021/05/30 12:52:54;;;;;;;3.92;2.67;;;20.70;94.20;;;;;;6246124;23;20157;-92
2021/05/30 12:55:22;;;;;;;7.45;3.47;;;20.80;91.20;;;;;;6246568;23;20153;-94
2021/05/30 12:57:50;;;;;;;5.35;3.10;;;20.90;90.60;;;;;;6246595;23;20149;-92